Otsego, New York
Current Conditions -  °F | °C
As of 9:15 PM on Sunday 23 Nov 2014 (Local Time) from KNY0 Reporting Station
Overcast Overcast  
Wind Chill: 35°   Ceiling: 8000
Heat Index: 39°   Visibility: 10mi
Dew Point: 32°   Wind: 6mph
Humidity: 75%   Direction: 50°NE
Pressure: 30.01"   Gusts: NA
Location:  42.7373°N, 74.9926°W
Report Text: KNY0 240215Z AUTO 05005KT 10SM OVC080 04/00 A3001 RMK AO2 T00400000
Loading
Personal Weather Stations






























Interactive Weather Map New forecast layout! Learn more

10-Day Weather Forecast

Advertisements
Track Severe Weather on mobile